sensor_id;sensor_type;location;lat;lon;timestamp;P1;durP1;ratioP1;P2;durP2;ratioP2
31126;SDS011;17775;57.948;12.514;2022-09-03T00:00:43;1.73;;;0.57;;
31126;SDS011;17775;57.948;12.514;2022-09-03T00:03:19;1.75;;;0.65;;
31126;SDS011;17775;57.948;12.514;2022-09-03T00:08:22;1.15;;;0.63;;
31126;SDS011;17775;57.948;12.514;2022-09-03T00:11:02;1.00;;;0.50;;
31126;SDS011;17775;57.948;12.514;2022-09-03T00:15:58;0.82;;;0.60;;
31126;SDS011;17775;57.948;12.514;2022-09-03T00:18:30;0.80;;;0.50;;
31126;SDS011;17775;57.948;12.514;2022-09-03T00:21:01;0.90;;;0.65;;
31126;SDS011;17775;57.948;12.514;2022-09-03T00:23:38;1.38;;;0.40;;
31126;SDS011;17775;57.948;12.514;2022-09-03T00:28:45;1.83;;;0.60;;
31126;SDS011;17775;57.948;12.514;2022-09-03T00:31:17;2.40;;;0.65;;
31126;SDS011;17775;57.948;12.514;2022-09-03T00:33:45;1.33;;;0.77;;
31126;SDS011;17775;57.948;12.514;2022-09-03T00:36:17;3.05;;;0.60;;
31126;SDS011;17775;57.948;12.514;2022-09-03T00:38:45;1.15;;;0.70;;
31126;SDS011;17775;57.948;12.514;2022-09-03T00:41:32;1.23;;;0.60;;
31126;SDS011;17775;57.948;12.514;2022-09-03T00:51:39;3.03;;;0.93;;
31126;SDS011;17775;57.948;12.514;2022-09-03T00:54:12;1.13;;;0.65;;
31126;SDS011;17775;57.948;12.514;2022-09-03T00:56:52;0.93;;;0.70;;
31126;SDS011;17775;57.948;12.514;2022-09-03T00:59:29;2.08;;;0.98;;
31126;SDS011;17775;57.948;12.514;2022-09-03T01:13:03;1.90;;;0.70;;
31126;SDS011;17775;57.948;12.514;2022-09-03T01:15:43;0.90;;;0.60;;
31126;SDS011;17775;57.948;12.514;2022-09-03T01:23:30;1.77;;;0.85;;
31126;SDS011;17775;57.948;12.514;2022-09-03T01:40:00;1.67;;;0.70;;
31126;SDS011;17775;57.948;12.514;2022-09-03T01:52:54;2.67;;;0.77;;
31126;SDS011;17775;57.948;12.514;2022-09-03T01:57:59;1.25;;;0.60;;
31126;SDS011;17775;57.948;12.514;2022-09-03T02:00:28;1.15;;;0.65;;
31126;SDS011;17775;57.948;12.514;2022-09-03T02:03:01;1.02;;;0.70;;
31126;SDS011;17775;57.948;12.514;2022-09-03T02:05:31;2.40;;;0.80;;
31126;SDS011;17775;57.948;12.514;2022-09-03T02:07:58;2.58;;;0.70;;
31126;SDS011;17775;57.948;12.514;2022-09-03T02:13:02;2.20;;;0.70;;
31126;SDS011;17775;57.948;12.514;2022-09-03T02:15:30;1.88;;;0.60;;
31126;SDS011;17775;57.948;12.514;2022-09-03T02:17:58;1.02;;;0.70;;
31126;SDS011;17775;57.948;12.514;2022-09-03T02:20:27;4.85;;;0.60;;
31126;SDS011;17775;57.948;12.514;2022-09-03T02:22:54;1.55;;;0.65;;
31126;SDS011;17775;57.948;12.514;2022-09-03T02:25:22;2.05;;;0.77;;
31126;SDS011;17775;57.948;12.514;2022-09-03T02:27:49;0.60;;;0.50;;
31126;SDS011;17775;57.948;12.514;2022-09-03T02:30:16;0.98;;;0.60;;
31126;SDS011;17775;57.948;12.514;2022-09-03T02:32:43;1.08;;;0.52;;
31126;SDS011;17775;57.948;12.514;2022-09-03T02:35:10;2.15;;;0.63;;
31126;SDS011;17775;57.948;12.514;2022-09-03T02:37:38;1.75;;;0.82;;
31126;SDS011;17775;57.948;12.514;2022-09-03T02:40:05;2.08;;;0.60;;
31126;SDS011;17775;57.948;12.514;2022-09-03T02:42:35;0.88;;;0.50;;
31126;SDS011;17775;57.948;12.514;2022-09-03T02:47:51;2.75;;;0.70;;
31126;SDS011;17775;57.948;12.514;2022-09-03T02:50:20;1.92;;;0.70;;
31126;SDS011;17775;57.948;12.514;2022-09-03T02:52:46;1.30;;;0.60;;
31126;SDS011;17775;57.948;12.514;2022-09-03T02:55:13;3.70;;;0.77;;
31126;SDS011;17775;57.948;12.514;2022-09-03T02:57:39;0.88;;;0.70;;
31126;SDS011;17775;57.948;12.514;2022-09-03T03:00:06;4.07;;;0.90;;
31126;SDS011;17775;57.948;12.514;2022-09-03T03:02:33;1.77;;;0.77;;
31126;SDS011;17775;57.948;12.514;2022-09-03T03:05:00;1.55;;;0.63;;
31126;SDS011;17775;57.948;12.514;2022-09-03T03:07:27;1.80;;;0.60;;
31126;SDS011;17775;57.948;12.514;2022-09-03T03:09:57;1.37;;;0.70;;
31126;SDS011;17775;57.948;12.514;2022-09-03T03:12:23;1.83;;;0.55;;
31126;SDS011;17775;57.948;12.514;2022-09-03T03:14:50;1.25;;;0.60;;
31126;SDS011;17775;57.948;12.514;2022-09-03T03:17:17;1.25;;;0.90;;
31126;SDS011;17775;57.948;12.514;2022-09-03T03:19:44;1.10;;;0.60;;
31126;SDS011;17775;57.948;12.514;2022-09-03T03:22:10;1.15;;;0.60;;
31126;SDS011;17775;57.948;12.514;2022-09-03T03:24:37;2.10;;;0.60;;
31126;SDS011;17775;57.948;12.514;2022-09-03T03:27:03;2.50;;;0.70;;
31126;SDS011;17775;57.948;12.514;2022-09-03T03:29:31;2.28;;;0.77;;
31126;SDS011;17775;57.948;12.514;2022-09-03T03:31:58;1.20;;;0.82;;
31126;SDS011;17775;57.948;12.514;2022-09-03T03:34:24;1.10;;;0.60;;
31126;SDS011;17775;57.948;12.514;2022-09-03T03:36:50;0.80;;;0.50;;
31126;SDS011;17775;57.948;12.514;2022-09-03T03:39:18;0.82;;;0.50;;
31126;SDS011;17775;57.948;12.514;2022-09-03T03:41:46;1.40;;;0.85;;
31126;SDS011;17775;57.948;12.514;2022-09-03T03:44:12;1.98;;;0.60;;
31126;SDS011;17775;57.948;12.514;2022-09-03T03:46:39;2.00;;;0.90;;
31126;SDS011;17775;57.948;12.514;2022-09-03T03:49:06;0.95;;;0.65;;
31126;SDS011;17775;57.948;12.514;2022-09-03T03:51:34;2.67;;;0.70;;
31126;SDS011;17775;57.948;12.514;2022-09-03T03:54:00;1.52;;;0.63;;
31126;SDS011;17775;57.948;12.514;2022-09-03T03:56:30;1.60;;;1.02;;
31126;SDS011;17775;57.948;12.514;2022-09-03T03:58:57;1.10;;;0.60;;
31126;SDS011;17775;57.948;12.514;2022-09-03T04:01:24;1.55;;;0.70;;
31126;SDS011;17775;57.948;12.514;2022-09-03T04:03:53;1.27;;;0.60;;
31126;SDS011;17775;57.948;12.514;2022-09-03T04:06:21;1.58;;;0.82;;
31126;SDS011;17775;57.948;12.514;2022-09-03T04:08:48;1.35;;;0.57;;
31126;SDS011;17775;57.948;12.514;2022-09-03T04:11:16;2.00;;;0.88;;
31126;SDS011;17775;57.948;12.514;2022-09-03T04:13:43;1.25;;;0.60;;
31126;SDS011;17775;57.948;12.514;2022-09-03T04:16:10;2.22;;;0.60;;
31126;SDS011;17775;57.948;12.514;2022-09-03T04:18:37;1.55;;;0.52;;
31126;SDS011;17775;57.948;12.514;2022-09-03T04:21:05;1.63;;;0.52;;
31126;SDS011;17775;57.948;12.514;2022-09-03T04:23:33;2.33;;;0.70;;
31126;SDS011;17775;57.948;12.514;2022-09-03T04:26:00;1.48;;;0.70;;
31126;SDS011;17775;57.948;12.514;2022-09-03T04:28:27;0.90;;;0.60;;
31126;SDS011;17775;57.948;12.514;2022-09-03T04:30:54;1.15;;;0.50;;
31126;SDS011;17775;57.948;12.514;2022-09-03T04:35:51;2.00;;;0.70;;
31126;SDS011;17775;57.948;12.514;2022-09-03T04:38:18;1.63;;;0.52;;
31126;SDS011;17775;57.948;12.514;2022-09-03T04:40:50;0.52;;;0.47;;
31126;SDS011;17775;57.948;12.514;2022-09-03T04:43:18;1.52;;;0.73;;
31126;SDS011;17775;57.948;12.514;2022-09-03T04:45:44;1.23;;;0.60;;
31126;SDS011;17775;57.948;12.514;2022-09-03T04:48:11;1.70;;;0.70;;
31126;SDS011;17775;57.948;12.514;2022-09-03T04:50:38;1.35;;;0.60;;
31126;SDS011;17775;57.948;12.514;2022-09-03T04:53:05;3.28;;;0.80;;
31126;SDS011;17775;57.948;12.514;2022-09-03T04:55:36;0.77;;;0.50;;
31126;SDS011;17775;57.948;12.514;2022-09-03T04:58:03;2.38;;;0.68;;
31126;SDS011;17775;57.948;12.514;2022-09-03T05:00:30;1.50;;;0.80;;
31126;SDS011;17775;57.948;12.514;2022-09-03T05:02:59;0.90;;;0.50;;
31126;SDS011;17775;57.948;12.514;2022-09-03T05:05:25;1.45;;;0.60;;
31126;SDS011;17775;57.948;12.514;2022-09-03T05:07:51;2.38;;;0.70;;
31126;SDS011;17775;57.948;12.514;2022-09-03T05:10:18;0.90;;;0.68;;
31126;SDS011;17775;57.948;12.514;2022-09-03T05:13:02;1.35;;;0.80;;
31126;SDS011;17775;57.948;12.514;2022-09-03T05:15:30;2.25;;;0.70;;
31126;SDS011;17775;57.948;12.514;2022-09-03T05:17:57;2.92;;;0.60;;
31126;SDS011;17775;57.948;12.514;2022-09-03T05:20:24;1.10;;;0.60;;
31126;SDS011;17775;57.948;12.514;2022-09-03T05:22:51;1.10;;;0.60;;
31126;SDS011;17775;57.948;12.514;2022-09-03T05:25:17;1.83;;;0.65;;
31126;SDS011;17775;57.948;12.514;2022-09-03T05:27:44;2.42;;;0.80;;
31126;SDS011;17775;57.948;12.514;2022-09-03T05:30:11;1.20;;;0.75;;
31126;SDS011;17775;57.948;12.514;2022-09-03T05:32:38;1.45;;;0.65;;
31126;SDS011;17775;57.948;12.514;2022-09-03T05:35:05;1.38;;;0.57;;
31126;SDS011;17775;57.948;12.514;2022-09-03T05:37:32;1.75;;;0.63;;
31126;SDS011;17775;57.948;12.514;2022-09-03T05:39:59;2.58;;;0.77;;
31126;SDS011;17775;57.948;12.514;2022-09-03T05:42:25;1.60;;;0.90;;
31126;SDS011;17775;57.948;12.514;2022-09-03T05:44:54;0.85;;;0.60;;
31126;SDS011;17775;57.948;12.514;2022-09-03T05:47:20;2.25;;;0.70;;
31126;SDS011;17775;57.948;12.514;2022-09-03T05:49:47;1.23;;;0.77;;
31126;SDS011;17775;57.948;12.514;2022-09-03T05:52:13;2.08;;;1.15;;
31126;SDS011;17775;57.948;12.514;2022-09-03T05:54:40;3.42;;;0.93;;
31126;SDS011;17775;57.948;12.514;2022-09-03T05:57:07;1.08;;;0.75;;
31126;SDS011;17775;57.948;12.514;2022-09-03T05:59:37;1.08;;;0.70;;
31126;SDS011;17775;57.948;12.514;2022-09-03T06:02:03;0.80;;;0.60;;
31126;SDS011;17775;57.948;12.514;2022-09-03T06:04:30;2.40;;;0.93;;
31126;SDS011;17775;57.948;12.514;2022-09-03T06:06:58;2.53;;;0.65;;
31126;SDS011;17775;57.948;12.514;2022-09-03T06:09:24;1.35;;;0.70;;
31126;SDS011;17775;57.948;12.514;2022-09-03T06:11:51;1.42;;;0.60;;
31126;SDS011;17775;57.948;12.514;2022-09-03T06:14:19;1.77;;;0.90;;
31126;SDS011;17775;57.948;12.514;2022-09-03T06:16:46;2.38;;;0.50;;
31126;SDS011;17775;57.948;12.514;2022-09-03T06:19:18;1.40;;;0.50;;
31126;SDS011;17775;57.948;12.514;2022-09-03T06:21:45;0.77;;;0.60;;
31126;SDS011;17775;57.948;12.514;2022-09-03T06:24:14;1.95;;;0.60;;
31126;SDS011;17775;57.948;12.514;2022-09-03T06:26:41;1.98;;;0.60;;
31126;SDS011;17775;57.948;12.514;2022-09-03T06:29:09;1.27;;;0.50;;
31126;SDS011;17775;57.948;12.514;2022-09-03T06:31:35;0.95;;;0.60;;
31126;SDS011;17775;57.948;12.514;2022-09-03T06:34:02;0.82;;;0.57;;
31126;SDS011;17775;57.948;12.514;2022-09-03T06:36:29;1.00;;;0.60;;
31126;SDS011;17775;57.948;12.514;2022-09-03T06:38:56;0.98;;;0.50;;
31126;SDS011;17775;57.948;12.514;2022-09-03T06:41:24;1.48;;;0.45;;
31126;SDS011;17775;57.948;12.514;2022-09-03T06:43:52;0.80;;;0.60;;
31126;SDS011;17775;57.948;12.514;2022-09-03T06:46:20;2.42;;;0.60;;
31126;SDS011;17775;57.948;12.514;2022-09-03T06:48:49;2.00;;;0.50;;
31126;SDS011;17775;57.948;12.514;2022-09-03T06:51:23;1.95;;;0.52;;
31126;SDS011;17775;57.948;12.514;2022-09-03T06:53:50;2.03;;;0.60;;
31126;SDS011;17775;57.948;12.514;2022-09-03T06:56:18;0.50;;;0.40;;
31126;SDS011;17775;57.948;12.514;2022-09-03T06:58:52;0.52;;;0.43;;
31126;SDS011;17775;57.948;12.514;2022-09-03T07:01:20;0.85;;;0.55;;
31126;SDS011;17775;57.948;12.514;2022-09-03T07:03:47;1.00;;;0.43;;
31126;SDS011;17775;57.948;12.514;2022-09-03T07:06:18;1.23;;;0.43;;
31126;SDS011;17775;57.948;12.514;2022-09-03T07:08:44;0.55;;;0.40;;
31126;SDS011;17775;57.948;12.514;2022-09-03T07:11:12;1.55;;;0.50;;
31126;SDS011;17775;57.948;12.514;2022-09-03T07:13:39;1.77;;;0.45;;
31126;SDS011;17775;57.948;12.514;2022-09-03T07:16:17;1.30;;;0.60;;
31126;SDS011;17775;57.948;12.514;2022-09-03T07:18:44;0.60;;;0.40;;
31126;SDS011;17775;57.948;12.514;2022-09-03T07:21:14;0.52;;;0.40;;
31126;SDS011;17775;57.948;12.514;2022-09-03T07:23:41;1.05;;;0.60;;
31126;SDS011;17775;57.948;12.514;2022-09-03T07:26:09;0.65;;;0.50;;
31126;SDS011;17775;57.948;12.514;2022-09-03T07:28:36;2.00;;;0.60;;
31126;SDS011;17775;57.948;12.514;2022-09-03T07:31:04;3.25;;;0.85;;
31126;SDS011;17775;57.948;12.514;2022-09-03T07:33:31;3.03;;;0.60;;
31126;SDS011;17775;57.948;12.514;2022-09-03T07:36:06;0.75;;;0.40;;
31126;SDS011;17775;57.948;12.514;2022-09-03T07:38:33;1.52;;;0.60;;
31126;SDS011;17775;57.948;12.514;2022-09-03T07:41:00;1.88;;;0.50;;
31126;SDS011;17775;57.948;12.514;2022-09-03T07:43:27;1.00;;;0.73;;
31126;SDS011;17775;57.948;12.514;2022-09-03T07:45:54;0.50;;;0.40;;
31126;SDS011;17775;57.948;12.514;2022-09-03T07:48:22;0.85;;;0.60;;
31126;SDS011;17775;57.948;12.514;2022-09-03T07:50:49;0.77;;;0.38;;
31126;SDS011;17775;57.948;12.514;2022-09-03T07:53:15;3.15;;;0.70;;
31126;SDS011;17775;57.948;12.514;2022-09-03T07:55:42;0.95;;;0.55;;
31126;SDS011;17775;57.948;12.514;2022-09-03T07:58:09;1.48;;;0.50;;
31126;SDS011;17775;57.948;12.514;2022-09-03T08:00:37;1.20;;;0.50;;
31126;SDS011;17775;57.948;12.514;2022-09-03T08:03:04;1.65;;;0.40;;
31126;SDS011;17775;57.948;12.514;2022-09-03T08:05:34;0.82;;;0.43;;
31126;SDS011;17775;57.948;12.514;2022-09-03T08:08:04;0.82;;;0.32;;
31126;SDS011;17775;57.948;12.514;2022-09-03T08:10:35;1.65;;;0.55;;
31126;SDS011;17775;57.948;12.514;2022-09-03T08:13:01;3.17;;;0.98;;
31126;SDS011;17775;57.948;12.514;2022-09-03T08:15:33;0.50;;;0.38;;
31126;SDS011;17775;57.948;12.514;2022-09-03T08:18:00;2.88;;;0.50;;
31126;SDS011;17775;57.948;12.514;2022-09-03T08:20:31;0.77;;;0.40;;
31126;SDS011;17775;57.948;12.514;2022-09-03T08:23:01;1.20;;;0.57;;
31126;SDS011;17775;57.948;12.514;2022-09-03T08:25:28;0.40;;;0.30;;
31126;SDS011;17775;57.948;12.514;2022-09-03T08:27:58;1.13;;;0.60;;
31126;SDS011;17775;57.948;12.514;2022-09-03T08:30:25;1.95;;;0.50;;
31126;SDS011;17775;57.948;12.514;2022-09-03T08:32:53;1.60;;;0.65;;
31126;SDS011;17775;57.948;12.514;2022-09-03T08:35:19;1.13;;;0.50;;
31126;SDS011;17775;57.948;12.514;2022-09-03T08:37:47;2.15;;;0.45;;
31126;SDS011;17775;57.948;12.514;2022-09-03T08:40:21;0.50;;;0.40;;
31126;SDS011;17775;57.948;12.514;2022-09-03T08:45:22;1.13;;;0.50;;
31126;SDS011;17775;57.948;12.514;2022-09-03T08:47:51;1.10;;;0.40;;
31126;SDS011;17775;57.948;12.514;2022-09-03T08:52:47;1.52;;;0.50;;
31126;SDS011;17775;57.948;12.514;2022-09-03T08:55:22;0.50;;;0.30;;
31126;SDS011;17775;57.948;12.514;2022-09-03T09:00:23;1.17;;;0.60;;
31126;SDS011;17775;57.948;12.514;2022-09-03T09:05:46;0.88;;;0.50;;
31126;SDS011;17775;57.948;12.514;2022-09-03T09:08:29;0.80;;;0.47;;
31126;SDS011;17775;57.948;12.514;2022-09-03T09:13:26;0.90;;;0.47;;
31126;SDS011;17775;57.948;12.514;2022-09-03T09:21:08;1.42;;;0.80;;
31126;SDS011;17775;57.948;12.514;2022-09-03T09:23:43;3.05;;;1.00;;
31126;SDS011;17775;57.948;12.514;2022-09-03T09:26:12;1.17;;;0.50;;
31126;SDS011;17775;57.948;12.514;2022-09-03T09:28:41;0.70;;;0.40;;
31126;SDS011;17775;57.948;12.514;2022-09-03T09:31:09;0.77;;;0.43;;
31126;SDS011;17775;57.948;12.514;2022-09-03T09:33:37;0.93;;;0.32;;
31126;SDS011;17775;57.948;12.514;2022-09-03T09:36:05;0.55;;;0.45;;
31126;SDS011;17775;57.948;12.514;2022-09-03T09:38:35;0.68;;;0.40;;
31126;SDS011;17775;57.948;12.514;2022-09-03T09:41:09;0.80;;;0.32;;
31126;SDS011;17775;57.948;12.514;2022-09-03T09:43:36;1.15;;;0.60;;
31126;SDS011;17775;57.948;12.514;2022-09-03T09:46:14;1.25;;;0.60;;
31126;SDS011;17775;57.948;12.514;2022-09-03T09:48:49;1.27;;;0.60;;
31126;SDS011;17775;57.948;12.514;2022-09-03T09:51:21;2.90;;;0.70;;
31126;SDS011;17775;57.948;12.514;2022-09-03T09:53:58;1.20;;;0.50;;
31126;SDS011;17775;57.948;12.514;2022-09-03T09:56:25;0.63;;;0.30;;
31126;SDS011;17775;57.948;12.514;2022-09-03T09:59:02;0.77;;;0.40;;
31126;SDS011;17775;57.948;12.514;2022-09-03T10:01:29;0.70;;;0.50;;
31126;SDS011;17775;57.948;12.514;2022-09-03T10:04:07;2.70;;;0.70;;
31126;SDS011;17775;57.948;12.514;2022-09-03T10:06:34;0.88;;;0.52;;
31126;SDS011;17775;57.948;12.514;2022-09-03T10:09:20;1.65;;;0.88;;
31126;SDS011;17775;57.948;12.514;2022-09-03T10:12:07;0.68;;;0.40;;
31126;SDS011;17775;57.948;12.514;2022-09-03T10:14:37;2.13;;;0.50;;
31126;SDS011;17775;57.948;12.514;2022-09-03T10:17:08;1.05;;;0.60;;
31126;SDS011;17775;57.948;12.514;2022-09-03T10:19:45;1.13;;;0.40;;
31126;SDS011;17775;57.948;12.514;2022-09-03T10:22:37;1.52;;;0.50;;
31126;SDS011;17775;57.948;12.514;2022-09-03T10:25:24;2.28;;;0.60;;
31126;SDS011;17775;57.948;12.514;2022-09-03T10:27:52;1.60;;;0.70;;
31126;SDS011;17775;57.948;12.514;2022-09-03T10:30:19;1.27;;;0.30;;
31126;SDS011;17775;57.948;12.514;2022-09-03T10:35:47;0.60;;;0.35;;
31126;SDS011;17775;57.948;12.514;2022-09-03T10:38:17;1.08;;;0.50;;
31126;SDS011;17775;57.948;12.514;2022-09-03T10:48:37;0.82;;;0.43;;
31126;SDS011;17775;57.948;12.514;2022-09-03T11:01:40;0.68;;;0.50;;
31126;SDS011;17775;57.948;12.514;2022-09-03T11:06:47;0.47;;;0.40;;
31126;SDS011;17775;57.948;12.514;2022-09-03T11:09:23;0.98;;;0.80;;
31126;SDS011;17775;57.948;12.514;2022-09-03T11:11:59;0.90;;;0.43;;
31126;SDS011;17775;57.948;12.514;2022-09-03T11:14:34;0.73;;;0.50;;
31126;SDS011;17775;57.948;12.514;2022-09-03T11:17:03;0.90;;;0.57;;
31126;SDS011;17775;57.948;12.514;2022-09-03T11:20:16;2.40;;;0.90;;
31126;SDS011;17775;57.948;12.514;2022-09-03T11:22:23;1.30;;;0.30;;
31126;SDS011;17775;57.948;12.514;2022-09-03T11:24:54;1.20;;;0.50;;
31126;SDS011;17775;57.948;12.514;2022-09-03T11:30:34;1.85;;;0.50;;
31126;SDS011;17775;57.948;12.514;2022-09-03T11:32:55;0.90;;;0.50;;
31126;SDS011;17775;57.948;12.514;2022-09-03T11:38:04;0.47;;;0.40;;
31126;SDS011;17775;57.948;12.514;2022-09-03T11:40:35;0.90;;;0.60;;
31126;SDS011;17775;57.948;12.514;2022-09-03T11:47:58;1.02;;;0.75;;
31126;SDS011;17775;57.948;12.514;2022-09-03T11:50:28;0.93;;;0.50;;
31126;SDS011;17775;57.948;12.514;2022-09-03T11:56:35;0.88;;;0.60;;
31126;SDS011;17775;57.948;12.514;2022-09-03T11:58:37;1.58;;;0.40;;
31126;SDS011;17775;57.948;12.514;2022-09-03T12:01:07;0.65;;;0.50;;
31126;SDS011;17775;57.948;12.514;2022-09-03T12:03:41;1.10;;;0.60;;
31126;SDS011;17775;57.948;12.514;2022-09-03T12:19:25;1.52;;;1.17;;
31126;SDS011;17775;57.948;12.514;2022-09-03T12:21:53;1.15;;;0.50;;
31126;SDS011;17775;57.948;12.514;2022-09-03T12:24:21;1.25;;;0.80;;
31126;SDS011;17775;57.948;12.514;2022-09-03T12:26:48;1.20;;;0.68;;
31126;SDS011;17775;57.948;12.514;2022-09-03T12:29:22;2.33;;;0.80;;
31126;SDS011;17775;57.948;12.514;2022-09-03T12:31:53;1.08;;;0.73;;
31126;SDS011;17775;57.948;12.514;2022-09-03T12:34:22;1.48;;;0.70;;
31126;SDS011;17775;57.948;12.514;2022-09-03T12:36:49;2.30;;;0.85;;
31126;SDS011;17775;57.948;12.514;2022-09-03T12:39:19;2.25;;;0.88;;
31126;SDS011;17775;57.948;12.514;2022-09-03T12:42:09;1.08;;;0.98;;
31126;SDS011;17775;57.948;12.514;2022-09-03T12:44:40;0.50;;;0.50;;
31126;SDS011;17775;57.948;12.514;2022-09-03T12:47:11;1.10;;;1.02;;
31126;SDS011;17775;57.948;12.514;2022-09-03T12:50:04;1.50;;;1.30;;
31126;SDS011;17775;57.948;12.514;2022-09-03T12:52:37;1.40;;;1.30;;
31126;SDS011;17775;57.948;12.514;2022-09-03T12:55:06;1.25;;;1.02;;
31126;SDS011;17775;57.948;12.514;2022-09-03T12:57:35;2.55;;;1.10;;
31126;SDS011;17775;57.948;12.514;2022-09-03T13:00:06;1.40;;;1.00;;
31126;SDS011;17775;57.948;12.514;2022-09-03T13:02:39;1.20;;;1.10;;
31126;SDS011;17775;57.948;12.514;2022-09-03T13:05:10;1.10;;;1.00;;
31126;SDS011;17775;57.948;12.514;2022-09-03T13:07:39;1.05;;;0.85;;
31126;SDS011;17775;57.948;12.514;2022-09-03T13:10:15;1.33;;;0.70;;
31126;SDS011;17775;57.948;12.514;2022-09-03T13:12:50;0.65;;;0.60;;
31126;SDS011;17775;57.948;12.514;2022-09-03T13:15:20;1.13;;;0.47;;
31126;SDS011;17775;57.948;12.514;2022-09-03T13:23:01;2.17;;;0.50;;
31126;SDS011;17775;57.948;12.514;2022-09-03T13:33:39;1.23;;;0.50;;
31126;SDS011;17775;57.948;12.514;2022-09-03T13:36:17;2.22;;;0.60;;
31126;SDS011;17775;57.948;12.514;2022-09-03T13:38:52;1.30;;;0.47;;
31126;SDS011;17775;57.948;12.514;2022-09-03T13:52:12;0.90;;;0.50;;
31126;SDS011;17775;57.948;12.514;2022-09-03T13:54:45;0.80;;;0.60;;
31126;SDS011;17775;57.948;12.514;2022-09-03T13:59:47;0.80;;;0.70;;
31126;SDS011;17775;57.948;12.514;2022-09-03T14:02:27;0.93;;;0.55;;
31126;SDS011;17775;57.948;12.514;2022-09-03T14:12:42;1.20;;;0.70;;
31126;SDS011;17775;57.948;12.514;2022-09-03T14:15:21;0.80;;;0.80;;
31126;SDS011;17775;57.948;12.514;2022-09-03T14:17:54;0.60;;;0.60;;
31126;SDS011;17775;57.948;12.514;2022-09-03T14:20:23;0.70;;;0.70;;
31126;SDS011;17775;57.948;12.514;2022-09-03T14:25:22;0.80;;;0.80;;
31126;SDS011;17775;57.948;12.514;2022-09-03T14:27:48;1.25;;;0.90;;
31126;SDS011;17775;57.948;12.514;2022-09-03T14:48:23;0.65;;;0.50;;
31126;SDS011;17775;57.948;12.514;2022-09-03T14:50:57;1.38;;;0.75;;
31126;SDS011;17775;57.948;12.514;2022-09-03T14:53:49;0.40;;;0.40;;
31126;SDS011;17775;57.948;12.514;2022-09-03T15:01:33;0.60;;;0.60;;
31126;SDS011;17775;57.948;12.514;2022-09-03T15:09:14;1.08;;;0.60;;
31126;SDS011;17775;57.948;12.514;2022-09-03T15:12:02;0.70;;;0.70;;
31126;SDS011;17775;57.948;12.514;2022-09-03T15:14:38;0.63;;;0.60;;
31126;SDS011;17775;57.948;12.514;2022-09-03T15:21:03;1.15;;;0.75;;
31126;SDS011;17775;57.948;12.514;2022-09-03T15:23:10;0.82;;;0.70;;
31126;SDS011;17775;57.948;12.514;2022-09-03T15:28:06;1.33;;;0.98;;
31126;SDS011;17775;57.948;12.514;2022-09-03T15:33:27;1.02;;;0.70;;
31126;SDS011;17775;57.948;12.514;2022-09-03T15:40:59;0.60;;;0.40;;
31126;SDS011;17775;57.948;12.514;2022-09-03T15:43:30;1.95;;;0.50;;
31126;SDS011;17775;57.948;12.514;2022-09-03T15:46:02;1.80;;;0.43;;
31126;SDS011;17775;57.948;12.514;2022-09-03T15:53:46;0.80;;;0.70;;
31126;SDS011;17775;57.948;12.514;2022-09-03T15:56:33;0.65;;;0.40;;
31126;SDS011;17775;57.948;12.514;2022-09-03T16:01:55;1.05;;;0.45;;
31126;SDS011;17775;57.948;12.514;2022-09-03T16:10:04;1.52;;;0.50;;
31126;SDS011;17775;57.948;12.514;2022-09-03T16:15:27;1.55;;;0.93;;
31126;SDS011;17775;57.948;12.514;2022-09-03T16:18:06;1.20;;;0.60;;
31126;SDS011;17775;57.948;12.514;2022-09-03T16:20:40;1.27;;;0.60;;
31126;SDS011;17775;57.948;12.514;2022-09-03T16:23:14;2.53;;;0.75;;
31126;SDS011;17775;57.948;12.514;2022-09-03T16:25:57;1.20;;;0.50;;
31126;SDS011;17775;57.948;12.514;2022-09-03T16:28:36;1.50;;;0.70;;
31126;SDS011;17775;57.948;12.514;2022-09-03T16:41:57;1.42;;;0.80;;
31126;SDS011;17775;57.948;12.514;2022-09-03T16:44:38;1.40;;;0.80;;
31126;SDS011;17775;57.948;12.514;2022-09-03T16:52:07;2.25;;;0.70;;
31126;SDS011;17775;57.948;12.514;2022-09-03T16:57:56;1.33;;;0.50;;
31126;SDS011;17775;57.948;12.514;2022-09-03T17:00:36;3.42;;;0.68;;
31126;SDS011;17775;57.948;12.514;2022-09-03T17:03:28;0.52;;;0.40;;
31126;SDS011;17775;57.948;12.514;2022-09-03T17:08:43;1.30;;;0.60;;
31126;SDS011;17775;57.948;12.514;2022-09-03T17:11:21;0.73;;;0.55;;
31126;SDS011;17775;57.948;12.514;2022-09-03T17:18:50;1.27;;;0.73;;
31126;SDS011;17775;57.948;12.514;2022-09-03T17:21:22;1.58;;;0.70;;
31126;SDS011;17775;57.948;12.514;2022-09-03T17:24:02;1.50;;;0.68;;
31126;SDS011;17775;57.948;12.514;2022-09-03T17:45:34;3.20;;;1.27;;
31126;SDS011;17775;57.948;12.514;2022-09-03T17:55:59;0.75;;;0.40;;
31126;SDS011;17775;57.948;12.514;2022-09-03T18:03:23;2.08;;;0.80;;
31126;SDS011;17775;57.948;12.514;2022-09-03T18:05:53;0.93;;;0.43;;
31126;SDS011;17775;57.948;12.514;2022-09-03T18:08:32;1.50;;;0.60;;
31126;SDS011;17775;57.948;12.514;2022-09-03T18:16:33;2.00;;;0.80;;
31126;SDS011;17775;57.948;12.514;2022-09-03T18:19:07;1.58;;;0.80;;
31126;SDS011;17775;57.948;12.514;2022-09-03T18:21:43;0.75;;;0.50;;
31126;SDS011;17775;57.948;12.514;2022-09-03T18:27:43;0.40;;;0.40;;
31126;SDS011;17775;57.948;12.514;2022-09-03T18:30:29;1.33;;;0.63;;
31126;SDS011;17775;57.948;12.514;2022-09-03T18:33:17;1.05;;;0.50;;
31126;SDS011;17775;57.948;12.514;2022-09-03T18:36:04;1.10;;;0.65;;
31126;SDS011;17775;57.948;12.514;2022-09-03T18:38:50;1.73;;;1.10;;
31126;SDS011;17775;57.948;12.514;2022-09-03T18:50:52;1.85;;;1.00;;
31126;SDS011;17775;57.948;12.514;2022-09-03T18:53:49;1.80;;;1.00;;
31126;SDS011;17775;57.948;12.514;2022-09-03T19:02:09;3.10;;;1.27;;
31126;SDS011;17775;57.948;12.514;2022-09-03T19:08:05;2.15;;;1.15;;
31126;SDS011;17775;57.948;12.514;2022-09-03T19:11:00;1.90;;;1.10;;
31126;SDS011;17775;57.948;12.514;2022-09-03T19:13:47;1.83;;;1.17;;
31126;SDS011;17775;57.948;12.514;2022-09-03T19:22:35;1.50;;;0.80;;
31126;SDS011;17775;57.948;12.514;2022-09-03T19:25:21;1.90;;;0.80;;
31126;SDS011;17775;57.948;12.514;2022-09-03T19:28:20;3.65;;;1.83;;
31126;SDS011;17775;57.948;12.514;2022-09-03T19:54:23;4.65;;;2.80;;
31126;SDS011;17775;57.948;12.514;2022-09-03T19:57:10;3.85;;;2.60;;
31126;SDS011;17775;57.948;12.514;2022-09-03T19:59:56;3.83;;;2.42;;
31126;SDS011;17775;57.948;12.514;2022-09-03T20:02:54;3.47;;;1.30;;
31126;SDS011;17775;57.948;12.514;2022-09-03T20:05:39;4.25;;;1.30;;
31126;SDS011;17775;57.948;12.514;2022-09-03T20:08:25;2.63;;;1.20;;
31126;SDS011;17775;57.948;12.514;2022-09-03T20:11:12;2.45;;;1.15;;
31126;SDS011;17775;57.948;12.514;2022-09-03T20:13:42;1.58;;;1.00;;
31126;SDS011;17775;57.948;12.514;2022-09-03T20:19:09;2.55;;;1.40;;
31126;SDS011;17775;57.948;12.514;2022-09-03T20:21:47;1.92;;;1.30;;
31126;SDS011;17775;57.948;12.514;2022-09-03T20:24:26;2.42;;;1.30;;
31126;SDS011;17775;57.948;12.514;2022-09-03T20:27:05;2.30;;;1.25;;
31126;SDS011;17775;57.948;12.514;2022-09-03T20:32:30;2.05;;;1.08;;
31126;SDS011;17775;57.948;12.514;2022-09-03T20:34:57;2.58;;;1.50;;
31126;SDS011;17775;57.948;12.514;2022-09-03T20:37:27;2.35;;;1.30;;
31126;SDS011;17775;57.948;12.514;2022-09-03T20:45:21;1.80;;;1.10;;
31126;SDS011;17775;57.948;12.514;2022-09-03T20:53:09;1.55;;;0.95;;
31126;SDS011;17775;57.948;12.514;2022-09-03T20:55:43;1.52;;;0.82;;
31126;SDS011;17775;57.948;12.514;2022-09-03T21:11:06;3.58;;;0.95;;
31126;SDS011;17775;57.948;12.514;2022-09-03T21:18:55;2.75;;;0.90;;